sensor_id;sensor_type;location;lat;lon;timestamp;pressure;altitude;pressure_sealevel;temperature;humidity
64827;BME280;51265;53.972;12.286;2022-09-03T00:01:43;101311.50;;;13.16;100.00
64827;BME280;51265;53.972;12.286;2022-09-03T00:04:18;101311.72;;;13.20;100.00
64827;BME280;51265;53.972;12.286;2022-09-03T00:06:59;101310.63;;;13.21;100.00
64827;BME280;51265;53.972;12.286;2022-09-03T00:09:34;101315.63;;;13.19;100.00
64827;BME280;51265;53.972;12.286;2022-09-03T00:12:10;101308.44;;;13.18;100.00
64827;BME280;51265;53.972;12.286;2022-09-03T00:17:24;101305.16;;;13.16;100.00
64827;BME280;51265;53.972;12.286;2022-09-03T00:19:58;101305.16;;;13.16;100.00
64827;BME280;51265;53.972;12.286;2022-09-03T00:22:39;101307.41;;;13.14;100.00
64827;BME280;51265;53.972;12.286;2022-09-03T00:25:11;101307.91;;;13.16;100.00
64827;BME280;51265;53.972;12.286;2022-09-03T00:27:40;101307.41;;;13.14;100.00
64827;BME280;51265;53.972;12.286;2022-09-03T00:30:11;101303.75;;;13.18;100.00
64827;BME280;51265;53.972;12.286;2022-09-03T00:32:53;101305.16;;;13.16;100.00
64827;BME280;51265;53.972;12.286;2022-09-03T00:35:27;101300.25;;;13.13;100.00
64827;BME280;51265;53.972;12.286;2022-09-03T00:37:56;101305.16;;;13.16;100.00
64827;BME280;51265;53.972;12.286;2022-09-03T00:40:36;101300.66;;;13.20;100.00
64827;BME280;51265;53.972;12.286;2022-09-03T00:49:11;101294.56;;;13.23;100.00
64827;BME280;51265;53.972;12.286;2022-09-03T00:55:03;101294.31;;;13.19;100.00
64827;BME280;51265;53.972;12.286;2022-09-03T00:57:42;101296.84;;;13.16;100.00
64827;BME280;51265;53.972;12.286;2022-09-03T01:00:17;101302.91;;;13.18;100.00
64827;BME280;51265;53.972;12.286;2022-09-03T01:03:09;101304.31;;;13.15;100.00
64827;BME280;51265;53.972;12.286;2022-09-03T01:06:00;101294.63;;;13.18;100.00
64827;BME280;51265;53.972;12.286;2022-09-03T01:17:49;101296.25;;;13.19;100.00
64827;BME280;51265;53.972;12.286;2022-09-03T01:20:26;101288.03;;;13.14;100.00
64827;BME280;51265;53.972;12.286;2022-09-03T01:28:39;101287.13;;;13.18;100.00
64827;BME280;51265;53.972;12.286;2022-09-03T01:31:10;101286.31;;;13.18;100.00
64827;BME280;51265;53.972;12.286;2022-09-03T01:34:09;101286.31;;;13.18;100.00
64827;BME280;51265;53.972;12.286;2022-09-03T01:36:49;101285.28;;;13.14;100.00
64827;BME280;51265;53.972;12.286;2022-09-03T01:42:16;101294.72;;;13.13;100.00
64827;BME280;51265;53.972;12.286;2022-09-03T01:53:18;101286.91;;;13.15;100.00
64827;BME280;51265;53.972;12.286;2022-09-03T01:58:48;101288.13;;;13.09;100.00
64827;BME280;51265;53.972;12.286;2022-09-03T02:01:25;101283.19;;;13.06;100.00
64827;BME280;51265;53.972;12.286;2022-09-03T02:03:55;101279.53;;;13.10;100.00
64827;BME280;51265;53.972;12.286;2022-09-03T02:06:26;101279.59;;;13.05;100.00
64827;BME280;51265;53.972;12.286;2022-09-03T02:08:52;101280.50;;;13.01;100.00
64827;BME280;51265;53.972;12.286;2022-09-03T02:11:18;101276.38;;;12.98;100.00
64827;BME280;51265;53.972;12.286;2022-09-03T02:13:47;101275.56;;;12.98;100.00
64827;BME280;51265;53.972;12.286;2022-09-03T02:16:17;101284.44;;;12.94;100.00
64827;BME280;51265;53.972;12.286;2022-09-03T02:18:49;101285.13;;;12.86;100.00
64827;BME280;51265;53.972;12.286;2022-09-03T02:21:19;101282.44;;;12.81;100.00
64827;BME280;51265;53.972;12.286;2022-09-03T02:23:47;101287.97;;;12.81;100.00
64827;BME280;51265;53.972;12.286;2022-09-03T02:26:18;101283.63;;;12.75;100.00
64827;BME280;51265;53.972;12.286;2022-09-03T02:28:46;101274.81;;;12.73;100.00
64827;BME280;51265;53.972;12.286;2022-09-03T02:31:12;101278.69;;;12.72;100.00
64827;BME280;51265;53.972;12.286;2022-09-03T02:33:41;101276.00;;;12.67;100.00
64827;BME280;51265;53.972;12.286;2022-09-03T02:36:09;101271.06;;;12.64;100.00
64827;BME280;51265;53.972;12.286;2022-09-03T02:38:35;101279.66;;;12.62;100.00
64827;BME280;51265;53.972;12.286;2022-09-03T02:41:02;101276.13;;;12.57;100.00
64827;BME280;51265;53.972;12.286;2022-09-03T02:52:48;101280.84;;;12.32;100.00
64827;BME280;51265;53.972;12.286;2022-09-03T02:55:14;101277.84;;;12.29;100.00
64827;BME280;51265;53.972;12.286;2022-09-03T02:57:40;101276.78;;;12.25;100.00
64827;BME280;51265;53.972;12.286;2022-09-03T03:00:07;101282.31;;;12.25;100.00
64827;BME280;51265;53.972;12.286;2022-09-03T03:02:33;101283.69;;;12.27;100.00
64827;BME280;51265;53.972;12.286;2022-09-03T03:04:59;101280.41;;;12.25;100.00
64827;BME280;51265;53.972;12.286;2022-09-03T03:07:29;101280.66;;;12.24;100.00
64827;BME280;51265;53.972;12.286;2022-09-03T03:09:56;101282.63;;;12.23;100.00
64827;BME280;51265;53.972;12.286;2022-09-03T03:12:22;101279.84;;;12.23;100.00
64827;BME280;51265;53.972;12.286;2022-09-03T03:14:49;101282.69;;;12.18;100.00
64827;BME280;51265;53.972;12.286;2022-09-03T03:17:15;101286.84;;;12.15;100.00
64827;BME280;51265;53.972;12.286;2022-09-03T03:19:41;101286.31;;;12.13;100.00
64827;BME280;51265;53.972;12.286;2022-09-03T03:22:07;101285.59;;;12.03;100.00
64827;BME280;51265;53.972;12.286;2022-09-03T03:24:33;101277.91;;;12.00;100.00
64827;BME280;51265;53.972;12.286;2022-09-03T03:26:58;101279.31;;;11.97;100.00
64827;BME280;51265;53.972;12.286;2022-09-03T03:29:24;101287.41;;;11.88;100.00
64827;BME280;51265;53.972;12.286;2022-09-03T03:31:51;101284.66;;;11.88;100.00
64827;BME280;51265;53.972;12.286;2022-09-03T03:34:17;101291.31;;;11.87;100.00
64827;BME280;51265;53.972;12.286;2022-09-03T03:36:42;101295.75;;;11.83;100.00
64827;BME280;51265;53.972;12.286;2022-09-03T03:39:08;101292.69;;;11.85;100.00
64827;BME280;51265;53.972;12.286;2022-09-03T03:41:35;101295.75;;;11.83;100.00
64827;BME280;51265;53.972;12.286;2022-09-03T03:44:03;101297.41;;;11.79;100.00
64827;BME280;51265;53.972;12.286;2022-09-03T03:46:32;101295.81;;;11.73;100.00
64827;BME280;51265;53.972;12.286;2022-09-03T03:48:58;101297.25;;;11.65;100.00
64827;BME280;51265;53.972;12.286;2022-09-03T03:51:24;101291.25;;;11.58;100.00
64827;BME280;51265;53.972;12.286;2022-09-03T03:53:56;101292.41;;;11.52;100.00
64827;BME280;51265;53.972;12.286;2022-09-03T03:56:24;101294.34;;;11.52;100.00
64827;BME280;51265;53.972;12.286;2022-09-03T03:58:51;101289.38;;;11.54;100.00
64827;BME280;51265;53.972;12.286;2022-09-03T04:01:20;101292.44;;;11.47;100.00
64827;BME280;51265;53.972;12.286;2022-09-03T04:03:46;101301.50;;;11.53;100.00
64827;BME280;51265;53.972;12.286;2022-09-03T04:06:14;101303.69;;;11.56;100.00
64827;BME280;51265;53.972;12.286;2022-09-03T04:08:42;101300.09;;;11.55;100.00
64827;BME280;51265;53.972;12.286;2022-09-03T04:11:10;101303.38;;;11.57;100.00
64827;BME280;51265;53.972;12.286;2022-09-03T04:13:38;101308.63;;;11.59;100.00
64827;BME280;51265;53.972;12.286;2022-09-03T04:16:06;101297.53;;;11.64;100.00
64827;BME280;51265;53.972;12.286;2022-09-03T04:18:33;101303.56;;;11.71;100.00
64827;BME280;51265;53.972;12.286;2022-09-03T04:21:25;101305.19;;;11.72;100.00
64827;BME280;51265;53.972;12.286;2022-09-03T04:23:57;101300.75;;;11.76;100.00
64827;BME280;51265;53.972;12.286;2022-09-03T04:26:25;101297.09;;;11.86;100.00
64827;BME280;51265;53.972;12.286;2022-09-03T04:28:52;101303.44;;;11.86;100.00
64827;BME280;51265;53.972;12.286;2022-09-03T04:31:19;101297.41;;;11.84;100.00
64827;BME280;51265;53.972;12.286;2022-09-03T04:33:45;101302.03;;;11.89;100.00
64827;BME280;51265;53.972;12.286;2022-09-03T04:36:30;101298.94;;;11.95;100.00
64827;BME280;51265;53.972;12.286;2022-09-03T04:38:58;101301.16;;;11.93;100.00
64827;BME280;51265;53.972;12.286;2022-09-03T04:41:27;101303.41;;;11.91;100.00
64827;BME280;51265;53.972;12.286;2022-09-03T04:43:54;101308.88;;;11.96;100.00
64827;BME280;51265;53.972;12.286;2022-09-03T04:46:22;101309.63;;;12.02;100.00
64827;BME280;51265;53.972;12.286;2022-09-03T04:48:52;101312.69;;;12.01;100.00
64827;BME280;51265;53.972;12.286;2022-09-03T04:51:23;101314.34;;;12.02;100.00
64827;BME280;51265;53.972;12.286;2022-09-03T04:53:53;101313.25;;;11.98;100.00
64827;BME280;51265;53.972;12.286;2022-09-03T04:56:32;101311.50;;;12.07;100.00
64827;BME280;51265;53.972;12.286;2022-09-03T04:59:05;101316.41;;;12.15;100.00
64827;BME280;51265;53.972;12.286;2022-09-03T05:01:33;101319.72;;;12.12;100.00
64827;BME280;51265;53.972;12.286;2022-09-03T05:04:00;101316.81;;;12.27;100.00
64827;BME280;51265;53.972;12.286;2022-09-03T05:06:28;101324.47;;;12.35;100.00
64827;BME280;51265;53.972;12.286;2022-09-03T05:08:55;101324.31;;;12.45;100.00
64827;BME280;51265;53.972;12.286;2022-09-03T05:11:21;101322.81;;;12.58;100.00
64827;BME280;51265;53.972;12.286;2022-09-03T05:13:49;101320.50;;;12.65;100.00
64827;BME280;51265;53.972;12.286;2022-09-03T05:16:16;101324.56;;;12.73;100.00
64827;BME280;51265;53.972;12.286;2022-09-03T05:18:42;101324.44;;;12.83;100.00
64827;BME280;51265;53.972;12.286;2022-09-03T05:21:11;101324.50;;;12.97;100.00
64827;BME280;51265;53.972;12.286;2022-09-03T05:23:39;101325.03;;;13.18;100.00
64827;BME280;51265;53.972;12.286;2022-09-03T05:26:07;101323.88;;;13.24;100.00
64827;BME280;51265;53.972;12.286;2022-09-03T05:28:35;101328.22;;;13.30;100.00
64827;BME280;51265;53.972;12.286;2022-09-03T05:33:32;101324.91;;;13.28;100.00
64827;BME280;51265;53.972;12.286;2022-09-03T05:36:13;101327.81;;;13.18;100.00
64827;BME280;51265;53.972;12.286;2022-09-03T05:38:41;101317.41;;;13.10;100.00
64827;BME280;51265;53.972;12.286;2022-09-03T05:41:10;101317.94;;;13.12;100.00
64827;BME280;51265;53.972;12.286;2022-09-03T05:43:36;101321.66;;;13.02;100.00
64827;BME280;51265;53.972;12.286;2022-09-03T05:46:08;101326.84;;;13.09;100.00
64827;BME280;51265;53.972;12.286;2022-09-03T05:48:36;101323.78;;;13.10;100.00
64827;BME280;51265;53.972;12.286;2022-09-03T05:51:14;101324.22;;;13.17;100.00
64827;BME280;51265;53.972;12.286;2022-09-03T05:53:45;101325.53;;;13.25;100.00
64827;BME280;51265;53.972;12.286;2022-09-03T05:56:19;101327.69;;;13.28;100.00
64827;BME280;51265;53.972;12.286;2022-09-03T05:58:50;101325.38;;;13.35;100.00
64827;BME280;51265;53.972;12.286;2022-09-03T06:01:33;101321.31;;;13.47;100.00
64827;BME280;51265;53.972;12.286;2022-09-03T06:04:01;101323.56;;;13.44;100.00
64827;BME280;51265;53.972;12.286;2022-09-03T06:06:30;101317.41;;;13.48;100.00
64827;BME280;51265;53.972;12.286;2022-09-03T06:09:03;101318.56;;;13.47;100.00
64827;BME280;51265;53.972;12.286;2022-09-03T06:11:30;101322.97;;;13.48;100.00
64827;BME280;51265;53.972;12.286;2022-09-03T06:13:58;101327.28;;;13.54;100.00
64827;BME280;51265;53.972;12.286;2022-09-03T06:16:31;101324.84;;;13.66;100.00
64827;BME280;51265;53.972;12.286;2022-09-03T06:18:58;101331.44;;;13.70;100.00
64827;BME280;51265;53.972;12.286;2022-09-03T06:21:24;101330.75;;;13.78;100.00
64827;BME280;51265;53.972;12.286;2022-09-03T06:23:51;101334.38;;;13.92;100.00
64827;BME280;51265;53.972;12.286;2022-09-03T06:26:18;101339.50;;;13.99;100.00
64827;BME280;51265;53.972;12.286;2022-09-03T06:28:45;101336.75;;;13.99;100.00
64827;BME280;51265;53.972;12.286;2022-09-03T06:31:15;101336.66;;;14.04;100.00
64827;BME280;51265;53.972;12.286;2022-09-03T06:33:42;101343.03;;;14.05;100.00
64827;BME280;51265;53.972;12.286;2022-09-03T06:36:11;101331.75;;;14.01;100.00
64827;BME280;51265;53.972;12.286;2022-09-03T06:38:38;101326.41;;;14.05;100.00
64827;BME280;51265;53.972;12.286;2022-09-03T06:41:08;101335.00;;;14.03;100.00
64827;BME280;51265;53.972;12.286;2022-09-03T06:43:39;101330.13;;;14.14;100.00
64827;BME280;51265;53.972;12.286;2022-09-03T06:46:10;101328.06;;;14.19;100.00
64827;BME280;51265;53.972;12.286;2022-09-03T06:48:38;101331.75;;;14.15;100.00
64827;BME280;51265;53.972;12.286;2022-09-03T06:51:07;101334.94;;;14.22;100.00
64827;BME280;51265;53.972;12.286;2022-09-03T06:53:36;101330.44;;;14.26;100.00
64827;BME280;51265;53.972;12.286;2022-09-03T06:56:08;101331.97;;;14.32;100.00
64827;BME280;51265;53.972;12.286;2022-09-03T06:58:39;101329.31;;;14.41;100.00
64827;BME280;51265;53.972;12.286;2022-09-03T07:03:39;101332.22;;;14.50;100.00
64827;BME280;51265;53.972;12.286;2022-09-03T07:06:17;101332.03;;;14.60;100.00
64827;BME280;51265;53.972;12.286;2022-09-03T07:08:44;101337.13;;;14.66;100.00
64827;BME280;51265;53.972;12.286;2022-09-03T07:11:18;101332.69;;;14.79;100.00
64827;BME280;51265;53.972;12.286;2022-09-03T07:13:48;101335.47;;;14.93;100.00
64827;BME280;51265;53.972;12.286;2022-09-03T07:16:19;101336.59;;;15.06;100.00
64827;BME280;51265;53.972;12.286;2022-09-03T07:18:46;101336.66;;;15.14;100.00
64827;BME280;51265;53.972;12.286;2022-09-03T07:21:20;101345.56;;;15.25;100.00
64827;BME280;51265;53.972;12.286;2022-09-03T07:23:47;101343.56;;;15.39;100.00
64827;BME280;51265;53.972;12.286;2022-09-03T07:26:15;101341.16;;;15.47;100.00
64827;BME280;51265;53.972;12.286;2022-09-03T07:28:42;101349.66;;;15.64;100.00
64827;BME280;51265;53.972;12.286;2022-09-03T07:33:53;101344.97;;;15.96;98.59
64827;BME280;51265;53.972;12.286;2022-09-03T07:36:21;101342.25;;;16.04;97.81
64827;BME280;51265;53.972;12.286;2022-09-03T07:38:47;101338.50;;;16.09;96.57
64827;BME280;51265;53.972;12.286;2022-09-03T07:41:14;101337.38;;;16.10;98.40
64827;BME280;51265;53.972;12.286;2022-09-03T07:43:42;101339.88;;;16.20;97.67
64827;BME280;51265;53.972;12.286;2022-09-03T07:46:09;101336.66;;;16.27;98.02
64827;BME280;51265;53.972;12.286;2022-09-03T07:48:40;101337.03;;;16.42;96.00
64827;BME280;51265;53.972;12.286;2022-09-03T07:51:07;101333.00;;;16.57;94.26
64827;BME280;51265;53.972;12.286;2022-09-03T07:53:33;101330.75;;;16.68;92.16
64827;BME280;51265;53.972;12.286;2022-09-03T07:56:06;101333.69;;;16.72;92.02
64827;BME280;51265;53.972;12.286;2022-09-03T07:58:34;101330.31;;;16.83;92.50
64827;BME280;51265;53.972;12.286;2022-09-03T08:01:13;101335.78;;;17.06;94.29
64827;BME280;51265;53.972;12.286;2022-09-03T08:03:42;101341.19;;;17.28;91.42
64827;BME280;51265;53.972;12.286;2022-09-03T08:06:12;101328.09;;;17.46;90.46
64827;BME280;51265;53.972;12.286;2022-09-03T08:08:39;101332.34;;;17.61;91.20
64827;BME280;51265;53.972;12.286;2022-09-03T08:11:10;101337.09;;;17.69;89.06
64827;BME280;51265;53.972;12.286;2022-09-03T08:13:40;101331.38;;;17.74;88.09
64827;BME280;51265;53.972;12.286;2022-09-03T08:16:10;101344.78;;;17.89;88.08
64827;BME280;51265;53.972;12.286;2022-09-03T08:18:38;101350.50;;;18.02;87.28
64827;BME280;51265;53.972;12.286;2022-09-03T08:21:10;101343.78;;;18.03;85.31
64827;BME280;51265;53.972;12.286;2022-09-03T08:23:41;101349.34;;;18.03;83.75
64827;BME280;51265;53.972;12.286;2022-09-03T08:26:07;101344.94;;;18.02;82.97
64827;BME280;51265;53.972;12.286;2022-09-03T08:28:34;101341.78;;;18.12;83.37
64827;BME280;51265;53.972;12.286;2022-09-03T08:31:19;101346.13;;;18.30;81.36
64827;BME280;51265;53.972;12.286;2022-09-03T08:33:48;101344.94;;;18.49;80.48
64827;BME280;51265;53.972;12.286;2022-09-03T08:36:17;101349.47;;;18.62;81.64
64827;BME280;51265;53.972;12.286;2022-09-03T08:38:45;101348.09;;;18.68;79.30
64827;BME280;51265;53.972;12.286;2022-09-03T08:41:26;101348.44;;;18.75;77.78
64827;BME280;51265;53.972;12.286;2022-09-03T08:44:08;101348.81;;;18.95;80.55
64827;BME280;51265;53.972;12.286;2022-09-03T08:49:06;101335.50;;;18.71;76.65
64827;BME280;51265;53.972;12.286;2022-09-03T08:51:34;101342.84;;;18.75;77.25
64827;BME280;51265;53.972;12.286;2022-09-03T08:54:03;101338.22;;;18.79;77.66
64827;BME280;51265;53.972;12.286;2022-09-03T08:56:31;101340.66;;;18.89;76.74
64827;BME280;51265;53.972;12.286;2022-09-03T08:59:00;101348.28;;;19.01;75.92
64827;BME280;51265;53.972;12.286;2022-09-03T09:01:45;101340.47;;;19.15;76.58
64827;BME280;51265;53.972;12.286;2022-09-03T09:07:10;101349.88;;;19.53;72.58
64827;BME280;51265;53.972;12.286;2022-09-03T09:12:40;101337.31;;;19.59;70.13
64827;BME280;51265;53.972;12.286;2022-09-03T09:15:12;101350.19;;;19.51;70.41
64827;BME280;51265;53.972;12.286;2022-09-03T09:17:50;101334.88;;;19.57;71.68
64827;BME280;51265;53.972;12.286;2022-09-03T09:20:44;101331.84;;;19.83;71.31
64827;BME280;51265;53.972;12.286;2022-09-03T09:23:23;101328.63;;;20.06;70.69
64827;BME280;51265;53.972;12.286;2022-09-03T09:25:53;101327.53;;;20.19;69.59
64827;BME280;51265;53.972;12.286;2022-09-03T09:28:32;101323.16;;;20.09;68.84
64827;BME280;51265;53.972;12.286;2022-09-03T09:31:01;101327.84;;;20.18;67.89
64827;BME280;51265;53.972;12.286;2022-09-03T09:33:28;101312.38;;;20.20;68.20
64827;BME280;51265;53.972;12.286;2022-09-03T09:35:58;101315.63;;;20.34;69.84
64827;BME280;51265;53.972;12.286;2022-09-03T09:38:42;101316.97;;;20.49;68.37
64827;BME280;51265;53.972;12.286;2022-09-03T09:41:15;101312.19;;;20.62;68.89
64827;BME280;51265;53.972;12.286;2022-09-03T09:43:42;101321.16;;;20.68;64.68
64827;BME280;51265;53.972;12.286;2022-09-03T09:46:18;101309.00;;;20.76;64.58
64827;BME280;51265;53.972;12.286;2022-09-03T09:48:52;101309.69;;;20.85;66.84
64827;BME280;51265;53.972;12.286;2022-09-03T09:51:30;101315.66;;;20.71;65.94
64827;BME280;51265;53.972;12.286;2022-09-03T09:54:16;101306.78;;;20.69;64.24
64827;BME280;51265;53.972;12.286;2022-09-03T09:56:57;101309.38;;;20.62;64.44
64827;BME280;51265;53.972;12.286;2022-09-03T09:59:23;101311.50;;;20.65;65.02
64827;BME280;51265;53.972;12.286;2022-09-03T10:01:49;101313.34;;;20.49;63.79
64827;BME280;51265;53.972;12.286;2022-09-03T10:04:23;101298.31;;;20.53;65.60
64827;BME280;51265;53.972;12.286;2022-09-03T10:07:00;101300.38;;;20.69;63.85
64827;BME280;51265;53.972;12.286;2022-09-03T10:09:29;101299.13;;;20.66;64.36
64827;BME280;51265;53.972;12.286;2022-09-03T10:15:02;101296.31;;;20.78;63.95
64827;BME280;51265;53.972;12.286;2022-09-03T10:20:23;101298.28;;;21.30;62.34
64827;BME280;51265;53.972;12.286;2022-09-03T10:22:59;101296.28;;;21.43;62.08
64827;BME280;51265;53.972;12.286;2022-09-03T10:25:41;101296.06;;;21.64;61.16
64827;BME280;51265;53.972;12.286;2022-09-03T10:28:17;101290.78;;;21.91;62.82
64827;BME280;51265;53.972;12.286;2022-09-03T10:30:56;101291.31;;;22.24;64.01
64827;BME280;51265;53.972;12.286;2022-09-03T10:33:41;101278.00;;;21.77;60.87
64827;BME280;51265;53.972;12.286;2022-09-03T10:36:37;101281.78;;;21.69;59.60
64827;BME280;51265;53.972;12.286;2022-09-03T10:42:42;101280.81;;;21.93;60.33
64827;BME280;51265;53.972;12.286;2022-09-03T10:45:17;101284.00;;;21.92;59.56
64827;BME280;51265;53.972;12.286;2022-09-03T10:50:22;101284.25;;;21.43;61.14
64827;BME280;51265;53.972;12.286;2022-09-03T10:53:03;101264.88;;;21.81;60.61
64827;BME280;51265;53.972;12.286;2022-09-03T11:01:41;101271.22;;;21.34;59.60
64827;BME280;51265;53.972;12.286;2022-09-03T11:04:42;101260.06;;;21.50;60.94
64827;BME280;51265;53.972;12.286;2022-09-03T11:07:12;101262.56;;;21.99;59.64
64827;BME280;51265;53.972;12.286;2022-09-03T11:09:44;101253.22;;;22.11;59.14
64827;BME280;51265;53.972;12.286;2022-09-03T11:12:30;101260.31;;;21.61;58.88
64827;BME280;51265;53.972;12.286;2022-09-03T11:15:05;101253.69;;;21.37;60.20
64827;BME280;51265;53.972;12.286;2022-09-03T11:17:49;101254.16;;;21.83;61.23
64827;BME280;51265;53.972;12.286;2022-09-03T11:20:22;101255.06;;;22.51;59.24
64827;BME280;51265;53.972;12.286;2022-09-03T11:22:51;101248.69;;;23.05;58.36
64827;BME280;51265;53.972;12.286;2022-09-03T11:25:29;101247.97;;;22.57;56.30
64827;BME280;51265;53.972;12.286;2022-09-03T11:28:37;101243.56;;;22.40;57.49
64827;BME280;51265;53.972;12.286;2022-09-03T11:32:14;101240.72;;;22.56;58.16
64827;BME280;51265;53.972;12.286;2022-09-03T11:34:27;101244.59;;;22.67;58.31
64827;BME280;51265;53.972;12.286;2022-09-03T11:37:20;101238.91;;;23.18;57.48
64827;BME280;51265;53.972;12.286;2022-09-03T11:42:35;101235.78;;;21.70;57.73
64827;BME280;51265;53.972;12.286;2022-09-03T11:47:50;101230.53;;;21.12;59.27
64827;BME280;51265;53.972;12.286;2022-09-03T11:50:27;101232.53;;;21.12;58.75
64827;BME280;51265;53.972;12.286;2022-09-03T11:58:28;101224.22;;;22.70;58.35
64827;BME280;51265;53.972;12.286;2022-09-03T12:00:54;101226.88;;;23.18;57.78
64827;BME280;51265;53.972;12.286;2022-09-03T12:03:27;101230.97;;;23.63;57.96
64827;BME280;51265;53.972;12.286;2022-09-03T12:09:02;101222.66;;;24.39;53.75
64827;BME280;51265;53.972;12.286;2022-09-03T12:14:26;101229.13;;;24.69;54.01
64827;BME280;51265;53.972;12.286;2022-09-03T12:19:55;101227.38;;;23.43;54.15
64827;BME280;51265;53.972;12.286;2022-09-03T12:22:24;101223.47;;;22.73;55.07
64827;BME280;51265;53.972;12.286;2022-09-03T12:24:51;101228.28;;;22.37;57.11
64827;BME280;51265;53.972;12.286;2022-09-03T12:27:25;101213.53;;;22.41;57.57
64827;BME280;51265;53.972;12.286;2022-09-03T12:29:59;101219.75;;;22.50;56.02
64827;BME280;51265;53.972;12.286;2022-09-03T12:32:31;101213.19;;;21.95;56.22
64827;BME280;51265;53.972;12.286;2022-09-03T12:35:19;101213.34;;;21.70;57.34
64827;BME280;51265;53.972;12.286;2022-09-03T12:37:46;101216.16;;;21.70;59.26
64827;BME280;51265;53.972;12.286;2022-09-03T12:42:42;101212.28;;;22.22;58.25
64827;BME280;51265;53.972;12.286;2022-09-03T12:45:09;101203.41;;;22.91;55.68
64827;BME280;51265;53.972;12.286;2022-09-03T12:47:38;101196.75;;;22.99;55.41
64827;BME280;51265;53.972;12.286;2022-09-03T12:50:13;101194.84;;;23.22;55.39
64827;BME280;51265;53.972;12.286;2022-09-03T12:57:54;101191.00;;;21.58;56.84
64827;BME280;51265;53.972;12.286;2022-09-03T13:00:21;101197.69;;;21.69;57.83
64827;BME280;51265;53.972;12.286;2022-09-03T13:03:07;101188.56;;;21.72;57.20
64827;BME280;51265;53.972;12.286;2022-09-03T13:05:43;101187.38;;;21.57;57.40
64827;BME280;51265;53.972;12.286;2022-09-03T13:08:17;101183.84;;;21.45;56.29
64827;BME280;51265;53.972;12.286;2022-09-03T13:10:50;101176.75;;;21.35;55.84
64827;BME280;51265;53.972;12.286;2022-09-03T13:13:27;101175.00;;;21.30;57.03
64827;BME280;51265;53.972;12.286;2022-09-03T13:16:03;101168.59;;;21.30;57.38
64827;BME280;51265;53.972;12.286;2022-09-03T13:21:15;101172.47;;;22.01;58.82
64827;BME280;51265;53.972;12.286;2022-09-03T13:23:56;101176.34;;;22.12;57.10
64827;BME280;51265;53.972;12.286;2022-09-03T13:31:52;101175.59;;;22.85;57.92
64827;BME280;51265;53.972;12.286;2022-09-03T13:34:36;101172.53;;;22.91;57.04
64827;BME280;51265;53.972;12.286;2022-09-03T13:37:18;101169.53;;;22.64;54.84
64827;BME280;51265;53.972;12.286;2022-09-03T13:39:58;101168.16;;;22.38;54.63
64827;BME280;51265;53.972;12.286;2022-09-03T13:42:35;101160.44;;;22.16;56.47
64827;BME280;51265;53.972;12.286;2022-09-03T13:45:28;101167.91;;;22.63;56.44
64827;BME280;51265;53.972;12.286;2022-09-03T13:48:07;101166.03;;;23.06;54.53
64827;BME280;51265;53.972;12.286;2022-09-03T13:51:14;101160.28;;;23.41;55.19
64827;BME280;51265;53.972;12.286;2022-09-03T13:56:19;101159.22;;;23.49;53.92
64827;BME280;51265;53.972;12.286;2022-09-03T13:58:52;101156.53;;;23.33;53.10
64827;BME280;51265;53.972;12.286;2022-09-03T14:01:25;101153.72;;;23.33;54.86
64827;BME280;51265;53.972;12.286;2022-09-03T14:04:00;101153.16;;;24.16;51.90
64827;BME280;51265;53.972;12.286;2022-09-03T14:06:41;101156.16;;;25.21;51.46
64827;BME280;51265;53.972;12.286;2022-09-03T14:20:32;101161.91;;;25.72;49.50
64827;BME280;51265;53.972;12.286;2022-09-03T14:25:55;101158.47;;;28.43;45.51
64827;BME280;51265;53.972;12.286;2022-09-03T14:28:37;101165.66;;;27.29;46.28
64827;BME280;51265;53.972;12.286;2022-09-03T14:36:48;101160.00;;;27.15;46.89
64827;BME280;51265;53.972;12.286;2022-09-03T14:50:55;101132.25;;;24.17;52.79
64827;BME280;51265;53.972;12.286;2022-09-03T14:59:20;101137.38;;;25.36;48.94
64827;BME280;51265;53.972;12.286;2022-09-03T15:07:44;101135.75;;;21.43;56.14
64827;BME280;51265;53.972;12.286;2022-09-03T15:12:52;101149.47;;;21.48;57.62
64827;BME280;51265;53.972;12.286;2022-09-03T15:18:25;101125.78;;;25.89;50.71
64827;BME280;51265;53.972;12.286;2022-09-03T15:23:46;101137.47;;;24.42;50.42
64827;BME280;51265;53.972;12.286;2022-09-03T15:29:05;101132.75;;;21.99;55.42
64827;BME280;51265;53.972;12.286;2022-09-03T15:31:42;101130.84;;;21.39;57.46
64827;BME280;51265;53.972;12.286;2022-09-03T15:36:59;101145.91;;;20.63;59.54
64827;BME280;51265;53.972;12.286;2022-09-03T15:39:38;101149.69;;;20.83;60.59
64827;BME280;51265;53.972;12.286;2022-09-03T15:42:10;101143.56;;;20.93;61.57
64827;BME280;51265;53.972;12.286;2022-09-03T15:44:46;101151.69;;;20.98;62.55
64827;BME280;51265;53.972;12.286;2022-09-03T15:47:31;101146.94;;;20.71;63.52
64827;BME280;51265;53.972;12.286;2022-09-03T15:52:48;101160.53;;;20.20;65.47
64827;BME280;51265;53.972;12.286;2022-09-03T15:55:34;101165.31;;;19.70;67.16
64827;BME280;51265;53.972;12.286;2022-09-03T15:58:26;101161.22;;;19.34;68.67
64827;BME280;51265;53.972;12.286;2022-09-03T16:01:07;101149.19;;;19.09;68.49
64827;BME280;51265;53.972;12.286;2022-09-03T16:03:43;101159.78;;;19.16;69.27
64827;BME280;51265;53.972;12.286;2022-09-03T16:06:27;101154.75;;;19.55;68.13